createdAt,value
2018-02-01T00:01:48.803Z,80.81
2018-02-01T00:04:19.737Z,81.50
2018-02-01T00:06:48.110Z,81.12
2018-02-01T00:09:16.410Z,81.62
2018-02-01T00:11:44.751Z,82.02
2018-02-01T00:14:13.128Z,82.12
2018-02-01T00:16:41.468Z,82.17
2018-02-01T00:19:12.421Z,82.53
2018-02-01T00:21:41.018Z,82.72
2018-02-01T00:24:09.395Z,82.78
2018-02-01T00:26:37.739Z,82.91
2018-02-01T00:29:07.919Z,82.84
2018-02-01T00:31:38.529Z,83.39
2018-02-01T00:34:08.485Z,84.04
2018-02-01T00:36:36.871Z,84.60
2018-02-01T00:39:05.172Z,85.20
2018-02-01T00:41:33.547Z,85.09
2018-02-01T00:44:01.867Z,85.45
2018-02-01T00:46:32.320Z,86.08
2018-02-01T00:49:00.670Z,86.37
2018-02-01T00:51:28.972Z,86.73
2018-02-01T00:53:57.324Z,87.41
2018-02-01T00:56:26.029Z,87.45
2018-02-01T00:58:54.495Z,87.33
2018-02-01T01:01:23.749Z,86.67
2018-02-01T01:03:53.121Z,87.11
2018-02-01T01:06:22.237Z,87.28
2018-02-01T01:08:50.680Z,86.71
2018-02-01T01:11:18.968Z,86.02
2018-02-01T01:13:47.418Z,86.02
2018-02-01T01:16:15.734Z,86.26
2018-02-01T01:18:44.074Z,86.21
2018-02-01T01:21:14.018Z,85.82
2018-02-01T01:23:42.537Z,86.30
2018-02-01T01:26:12.471Z,86.34
2018-02-01T01:28:40.867Z,86.77
2018-02-01T01:31:09.176Z,86.12
2018-02-01T01:33:40.527Z,86.47
2018-02-01T01:36:11.501Z,86.15
2018-02-01T01:38:40.078Z,86.02
2018-02-01T01:41:08.421Z,86.02
2018-02-01T01:43:36.793Z,85.80
2018-02-01T01:46:11.072Z,85.75
2018-02-01T01:48:39.361Z,85.64
2018-02-01T01:51:07.747Z,85.72
2018-02-01T01:53:36.922Z,85.70
2018-02-01T01:56:05.319Z,85.01
2018-02-01T01:58:33.604Z,85.17
2018-02-01T02:01:03.003Z,85.15
2018-02-01T02:03:31.407Z,85.31
2018-02-01T02:05:59.759Z,85.26
2018-02-01T02:08:28.207Z,85.24
2018-02-01T02:10:56.575Z,85.43
2018-02-01T02:13:25.653Z,84.45
2018-02-01T02:15:53.985Z,84.45
2018-02-01T02:18:22.294Z,84.92
2018-02-01T02:20:50.673Z,84.32
2018-02-01T02:23:22.827Z,84.04
2018-02-01T02:25:53.839Z,84.40
2018-02-01T02:28:22.934Z,84.10
2018-02-01T02:30:51.292Z,84.34
2018-02-01T02:33:21.282Z,84.20
2018-02-01T02:35:49.658Z,84.58
2018-02-01T02:38:18.000Z,85.00
2018-02-01T02:40:46.352Z,85.07
2018-02-01T02:43:14.715Z,85.81
2018-02-01T02:45:46.787Z,85.80
2018-02-01T02:48:15.131Z,86.08
2018-02-01T02:50:44.838Z,86.04
2018-02-01T02:53:13.464Z,86.58
2018-02-01T02:55:41.757Z,86.12
2018-02-01T02:58:11.017Z,86.90
2018-02-01T03:00:39.344Z,87.50
2018-02-01T03:03:09.326Z,87.88
2018-02-01T03:05:38.417Z,88.81
2018-02-01T03:08:06.803Z,90.02
2018-02-01T03:10:36.130Z,89.52
2018-02-01T03:13:04.406Z,89.91
2018-02-01T03:15:32.917Z,90.18
2018-02-01T03:18:01.263Z,90.43
2018-02-01T03:20:29.575Z,90.19
2018-02-01T03:22:57.934Z,90.26
2018-02-01T03:25:27.117Z,90.64
2018-02-01T03:27:56.496Z,90.78
2018-02-01T03:30:25.629Z,90.95
2018-02-01T03:32:53.940Z,91.49
2018-02-01T03:35:22.282Z,91.96
2018-02-01T03:37:50.649Z,92.17
2018-02-01T03:40:19.675Z,92.50
2018-02-01T03:42:48.030Z,92.59
2018-02-01T03:45:18.072Z,92.59
2018-02-01T03:47:47.366Z,92.80
2018-02-01T03:50:17.435Z,92.96
2018-02-01T03:52:45.820Z,93.06
2018-02-01T03:55:16.539Z,92.94
2018-02-01T03:57:44.883Z,92.81
2018-02-01T04:00:15.620Z,92.75
2018-02-01T04:02:44.367Z,92.51
2018-02-01T04:05:14.410Z,92.32
2018-02-01T04:07:42.774Z,92.28
2018-02-01T04:10:11.915Z,92.14
2018-02-01T04:12:40.294Z,91.91
2018-02-01T04:15:08.674Z,91.18
2018-02-01T04:17:37.004Z,90.99
2018-02-01T04:20:05.307Z,90.14
2018-02-01T04:22:35.297Z,90.12
2018-02-01T04:25:03.693Z,90.30
2018-02-01T04:27:32.015Z,90.45
2018-02-01T04:30:03.267Z,90.46
2018-02-01T04:32:31.547Z,90.18
2018-02-01T04:34:59.868Z,89.92
2018-02-01T04:37:28.195Z,89.43
2018-02-01T04:39:58.302Z,89.36
2018-02-01T04:42:26.690Z,89.67
2018-02-01T04:44:55.707Z,89.36
2018-02-01T04:47:26.636Z,89.50
2018-02-01T04:49:54.960Z,89.22
2018-02-01T04:52:23.350Z,88.90
2018-02-01T04:54:51.961Z,88.68
2018-02-01T04:57:20.383Z,89.23
2018-02-01T04:59:48.728Z,89.14
2018-02-01T05:02:17.242Z,89.36
2018-02-01T05:04:46.350Z,89.12
2018-02-01T05:07:14.773Z,89.10
2018-02-01T05:09:44.806Z,89.05
2018-02-01T05:12:15.279Z,88.78
2018-02-01T05:14:45.943Z,89.17
2018-02-01T05:17:14.237Z,89.13
2018-02-01T05:19:42.699Z,88.89
2018-02-01T05:22:12.759Z,89.09
2018-02-01T05:24:41.149Z,88.93
2018-02-01T05:27:09.455Z,89.01
2018-02-01T05:29:39.398Z,88.92
2018-02-01T05:32:07.762Z,88.93
2018-02-01T05:34:36.298Z,88.83
2018-02-01T05:37:04.693Z,88.59
2018-02-01T05:39:33.300Z,88.67
2018-02-01T05:42:06.984Z,88.59
2018-02-01T05:44:35.346Z,88.89
2018-02-01T05:47:03.718Z,88.66
2018-02-01T05:49:32.156Z,88.70
2018-02-01T05:52:00.618Z,88.46
2018-02-01T05:54:29.006Z,88.39
2018-02-01T05:56:57.355Z,88.72
2018-02-01T05:59:25.723Z,88.87
2018-02-01T06:01:54.054Z,88.99
2018-02-01T06:04:22.394Z,89.50
2018-02-01T06:06:54.302Z,89.53
2018-02-01T06:09:22.614Z,89.50
2018-02-01T06:11:52.930Z,90.16
2018-02-01T06:14:24.594Z,90.12
2018-02-01T06:16:52.968Z,88.62
2018-02-01T06:19:21.658Z,88.73
2018-02-01T06:21:49.932Z,89.23
2018-02-01T06:24:18.306Z,90.26
2018-02-01T06:26:48.239Z,90.39
2018-02-01T06:29:17.452Z,90.77
2018-02-01T06:31:46.762Z,91.29
2018-02-01T06:34:16.976Z,91.58
2018-02-01T06:36:45.347Z,91.94
2018-02-01T06:39:13.662Z,91.86
2018-02-01T06:41:41.972Z,91.73
2018-02-01T06:44:10.398Z,91.96
2018-02-01T06:46:38.726Z,91.85
2018-02-01T06:49:09.398Z,92.06
2018-02-01T06:51:37.812Z,92.38
2018-02-01T06:54:06.871Z,92.89
2018-02-01T06:56:35.258Z,92.81
2018-02-01T06:59:05.226Z,93.05
2018-02-01T07:01:51.422Z,92.89
2018-02-01T07:04:21.678Z,92.56
2018-02-01T07:06:51.908Z,92.65
2018-02-01T07:09:20.335Z,92.74
2018-02-01T07:11:48.753Z,91.92
2018-02-01T07:14:17.310Z,92.66
2018-02-01T07:16:45.690Z,92.84
2018-02-01T07:19:15.948Z,92.93
2018-02-01T07:21:46.946Z,93.03
2018-02-01T07:24:15.422Z,92.76
2018-02-01T07:26:43.902Z,92.45
2018-02-01T07:29:12.190Z,92.34
2018-02-01T07:31:40.700Z,92.02
2018-02-01T07:34:09.044Z,91.63
2018-02-01T07:36:38.543Z,92.01
2018-02-01T07:39:06.830Z,92.15
2018-02-01T07:41:35.216Z,92.37
2018-02-01T07:44:03.520Z,92.21
2018-02-01T07:46:33.440Z,92.25
2018-02-01T07:49:02.604Z,92.46
2018-02-01T07:51:30.931Z,92.82
2018-02-01T07:53:59.957Z,92.94
2018-02-01T07:56:29.092Z,92.83
2018-02-01T07:58:57.443Z,92.85
2018-02-01T08:01:25.784Z,92.68
2018-02-01T08:03:57.018Z,92.66
2018-02-01T08:06:25.478Z,92.68
2018-02-01T08:08:55.730Z,92.67
2018-02-01T08:11:26.766Z,92.19
2018-02-01T08:13:55.090Z,92.41
2018-02-01T08:16:23.550Z,92.67
2018-02-01T08:18:51.905Z,92.54
2018-02-01T08:21:20.236Z,92.62
2018-02-01T08:23:50.512Z,92.74
2018-02-01T08:26:24.130Z,92.64
2018-02-01T08:28:53.392Z,92.83
2018-02-01T08:31:24.872Z,92.32
2018-02-01T08:33:53.276Z,92.63
2018-02-01T08:36:21.834Z,92.61
2018-02-01T08:38:52.746Z,92.49
2018-02-01T08:41:22.970Z,92.50
2018-02-01T08:43:52.362Z,92.58
2018-02-01T08:46:23.888Z,92.80
2018-02-01T08:48:53.990Z,93.33
2018-02-01T08:51:22.298Z,92.94
2018-02-01T08:53:53.264Z,93.27
2018-02-01T08:56:22.656Z,93.25
2018-02-01T08:58:51.060Z,93.20
2018-02-01T09:01:19.406Z,93.35
2018-02-01T09:03:49.648Z,93.53
2018-02-01T09:06:20.270Z,93.05
2018-02-01T09:08:49.775Z,93.00
2018-02-01T09:11:18.254Z,92.61
2018-02-01T09:13:52.541Z,92.45
2018-02-01T09:16:20.953Z,91.70
2018-02-01T09:18:49.336Z,91.86
2018-02-01T09:21:17.803Z,92.30
2018-02-01T09:23:47.267Z,91.84
2018-02-01T09:26:15.622Z,91.96
2018-02-01T09:28:44.202Z,92.60
2018-02-01T09:31:12.579Z,92.50
2018-02-01T09:33:42.556Z,92.44
2018-02-01T09:36:10.991Z,92.18
2018-02-01T09:38:40.087Z,92.44
2018-02-01T09:41:12.294Z,92.27
2018-02-01T09:43:40.633Z,92.25
2018-02-01T09:46:11.045Z,92.54
2018-02-01T09:48:41.792Z,92.31
2018-02-01T09:51:11.760Z,92.34
2018-02-01T09:53:44.024Z,92.72
2018-02-01T09:56:12.470Z,92.98
2018-02-01T09:58:40.928Z,92.77
2018-02-01T10:01:10.918Z,92.70
2018-02-01T10:03:39.423Z,92.82
2018-02-01T10:06:07.798Z,93.54
2018-02-01T10:08:37.844Z,93.24
2018-02-01T10:11:06.222Z,93.23
2018-02-01T10:13:34.633Z,92.83
2018-02-01T10:16:03.901Z,92.52
2018-02-01T10:18:33.200Z,92.96
2018-02-01T10:21:05.771Z,92.71
2018-02-01T10:23:34.121Z,93.07
2018-02-01T10:26:02.604Z,92.98
2018-02-01T10:28:30.953Z,93.17
2018-02-01T10:30:59.372Z,93.19
2018-02-01T10:33:27.770Z,92.95
2018-02-01T10:35:56.092Z,92.92
2018-02-01T10:38:25.251Z,93.01
2018-02-01T10:40:55.543Z,92.78
2018-02-01T10:43:27.336Z,92.80
2018-02-01T10:45:55.856Z,92.69
2018-02-01T10:48:24.972Z,92.37
2018-02-01T10:50:54.279Z,92.47
2018-02-01T10:53:23.555Z,92.45
2018-02-01T10:55:53.748Z,92.46
2018-02-01T10:58:22.179Z,92.70
2018-02-01T11:00:54.796Z,92.52
2018-02-01T11:03:23.203Z,92.71
2018-02-01T11:05:53.187Z,92.12
2018-02-01T11:08:22.327Z,91.81
2018-02-01T11:10:50.657Z,92.88
2018-02-01T11:13:20.677Z,92.86
2018-02-01T11:15:52.069Z,92.75
2018-02-01T11:18:20.441Z,92.68
2018-02-01T11:20:50.453Z,92.56
2018-02-01T11:23:18.801Z,92.33
2018-02-01T11:25:48.809Z,92.44
2018-02-01T11:28:17.181Z,92.76
2018-02-01T11:30:45.531Z,92.42
2018-02-01T11:33:13.848Z,92.87
2018-02-01T11:35:42.245Z,92.81
2018-02-01T11:38:10.633Z,92.64
2018-02-01T11:40:39.906Z,92.72
2018-02-01T11:43:10.132Z,92.54
2018-02-01T11:45:41.681Z,92.88
2018-02-01T11:48:10.060Z,92.03
2018-02-01T11:50:38.363Z,92.59
2018-02-01T11:53:08.543Z,92.99
2018-02-01T11:55:37.074Z,92.47
2018-02-01T11:58:05.419Z,92.06
2018-02-01T12:00:33.929Z,92.26
2018-02-01T12:03:04.135Z,92.17
2018-02-01T12:05:32.442Z,91.99
2018-02-01T12:08:01.646Z,91.83
2018-02-01T12:10:29.943Z,92.16
2018-02-01T12:12:58.987Z,90.99
2018-02-01T12:15:30.308Z,91.29
2018-02-01T12:17:58.787Z,91.87
2018-02-01T12:20:27.123Z,91.92
2018-02-01T12:22:55.507Z,92.16
2018-02-01T12:25:26.619Z,91.70
2018-02-01T12:27:57.333Z,91.41
2018-02-01T12:30:27.841Z,91.26
2018-02-01T12:32:58.901Z,91.39
2018-02-01T12:35:27.333Z,91.68
2018-02-01T12:37:57.502Z,90.63
2018-02-01T12:40:27.768Z,90.42
2018-02-01T12:42:58.799Z,89.62
2018-02-01T12:45:29.802Z,89.74
2018-02-01T12:47:58.199Z,89.14
2018-02-01T12:50:26.612Z,90.29
2018-02-01T12:52:58.280Z,90.57
2018-02-01T12:55:27.396Z,89.54
2018-02-01T12:57:55.698Z,89.87
2018-02-01T13:00:24.982Z,89.96
2018-02-01T13:02:53.366Z,90.31
2018-02-01T13:05:22.450Z,90.92
2018-02-01T13:07:50.848Z,91.19
2018-02-01T13:10:21.010Z,90.87
2018-02-01T13:12:49.502Z,90.88
2018-02-01T13:15:17.892Z,90.73
2018-02-01T13:17:46.398Z,91.22
2018-02-01T13:20:15.546Z,90.74
2018-02-01T13:22:43.906Z,90.73
2018-02-01T13:25:13.088Z,90.66
2018-02-01T13:27:43.290Z,90.90
2018-02-01T13:30:12.442Z,91.21
2018-02-01T13:32:44.555Z,91.18
2018-02-01T13:35:14.664Z,90.76
2018-02-01T13:37:43.114Z,90.65
2018-02-01T13:40:11.550Z,90.76
2018-02-01T13:42:40.154Z,90.74
2018-02-01T13:45:08.544Z,90.88
2018-02-01T13:47:39.227Z,90.77
2018-02-01T13:50:07.618Z,90.95
2018-02-01T13:52:35.943Z,90.72
2018-02-01T13:55:04.317Z,90.17
2018-02-01T13:57:32.809Z,90.33
2018-02-01T14:00:01.135Z,90.55
2018-02-01T14:02:29.479Z,90.35
2018-02-01T14:04:57.876Z,90.23
2018-02-01T14:07:33.076Z,90.17
2018-02-01T14:10:03.248Z,90.46
2018-02-01T14:12:33.216Z,90.00
2018-02-01T14:15:04.166Z,90.75
2018-02-01T14:17:32.617Z,90.22
2018-02-01T14:20:03.356Z,89.75
2018-02-01T14:22:34.052Z,89.55
2018-02-01T14:25:03.458Z,89.42
2018-02-01T14:27:32.852Z,89.60
2018-02-01T14:30:01.216Z,89.46
2018-02-01T14:32:31.330Z,89.98
2018-02-01T14:35:00.284Z,90.67
2018-02-01T14:37:29.574Z,90.48
2018-02-01T14:39:57.964Z,90.56
2018-02-01T14:42:30.179Z,90.67
2018-02-01T14:45:00.317Z,90.72
2018-02-01T14:47:28.770Z,90.54
2018-02-01T14:49:57.225Z,91.09
2018-02-01T14:52:26.406Z,91.54
2018-02-01T14:54:54.784Z,92.19
2018-02-01T14:57:24.954Z,92.18
2018-02-01T14:59:54.348Z,92.24
2018-02-01T15:02:26.372Z,92.76
2018-02-01T15:04:54.714Z,92.40
2018-02-01T15:07:23.215Z,92.29
2018-02-01T15:09:51.678Z,92.23
2018-02-01T15:12:21.839Z,92.34
2018-02-01T15:14:50.444Z,91.83
2018-02-01T15:17:21.366Z,92.23
2018-02-01T15:19:49.941Z,92.04
2018-02-01T15:22:18.346Z,92.29
2018-02-01T15:24:48.127Z,92.43
2018-02-01T15:27:18.378Z,92.50
2018-02-01T15:29:49.254Z,92.82
2018-02-01T15:32:17.589Z,92.53
2018-02-01T15:34:46.145Z,92.67
2018-02-01T15:37:14.628Z,92.81
2018-02-01T15:39:44.009Z,92.88
2018-02-01T15:42:13.531Z,92.93
2018-02-01T15:44:41.916Z,92.99
2018-02-01T15:47:12.131Z,93.09
2018-02-01T15:49:42.197Z,93.05
2018-02-01T15:52:10.940Z,93.08
2018-02-01T15:54:41.001Z,93.07
2018-02-01T15:57:11.379Z,93.08
2018-02-01T15:59:42.339Z,93.04
2018-02-01T16:02:14.343Z,93.08
2018-02-01T16:04:43.490Z,93.25
2018-02-01T16:07:14.300Z,93.11
2018-02-01T16:09:42.613Z,93.01
2018-02-01T16:12:14.203Z,93.22
2018-02-01T16:14:43.302Z,93.51
2018-02-01T16:17:11.827Z,93.63
2018-02-01T16:19:41.906Z,93.79
2018-02-01T16:22:10.447Z,94.16
2018-02-01T16:24:39.791Z,94.13
2018-02-01T16:27:11.133Z,94.12
2018-02-01T16:29:40.217Z,94.27
2018-02-01T16:32:11.214Z,94.21
2018-02-01T16:34:40.713Z,94.27
2018-02-01T16:37:12.506Z,94.53
2018-02-01T16:39:42.953Z,94.34
2018-02-01T16:42:11.328Z,94.24
2018-02-01T16:44:39.681Z,94.33
2018-02-01T16:47:08.099Z,94.37
2018-02-01T16:49:36.793Z,94.41
2018-02-01T16:52:05.995Z,94.57
2018-02-01T16:54:34.621Z,94.55
2018-02-01T16:57:02.989Z,94.56
2018-02-01T16:59:33.164Z,94.65
2018-02-01T17:02:01.682Z,94.57
2018-02-01T17:04:30.197Z,94.52
2018-02-01T17:06:58.688Z,94.56
2018-02-01T17:09:27.007Z,94.65
2018-02-01T17:11:55.513Z,94.64
2018-02-01T17:14:23.869Z,94.55
2018-02-01T17:16:52.191Z,94.53
2018-02-01T17:19:25.487Z,94.21
2018-02-01T17:21:57.268Z,94.22
2018-02-01T17:24:28.306Z,93.98
2018-02-01T17:26:56.718Z,93.75
2018-02-01T17:29:28.063Z,93.37
2018-02-01T17:31:59.431Z,92.74
2018-02-01T17:34:28.388Z,92.72
2018-02-01T17:36:58.552Z,92.60
2018-02-01T17:39:29.621Z,92.43
2018-02-01T17:41:58.038Z,92.42
2018-02-01T17:44:26.561Z,92.39
2018-02-01T17:46:57.566Z,92.60
2018-02-01T17:49:28.601Z,92.08
2018-02-01T17:51:57.224Z,92.36
2018-02-01T17:54:26.384Z,92.50
2018-02-01T17:56:54.754Z,92.49
2018-02-01T17:59:23.193Z,92.46
2018-02-01T18:01:51.775Z,92.24
2018-02-01T18:04:20.152Z,92.16
2018-02-01T18:06:49.448Z,92.20
2018-02-01T18:09:17.789Z,92.16
2018-02-01T18:11:46.299Z,92.20
2018-02-01T18:14:15.494Z,92.05
2018-02-01T18:16:44.895Z,92.12
2018-02-01T18:19:15.023Z,92.20
2018-02-01T18:21:43.439Z,92.25
2018-02-01T18:24:13.526Z,92.55
2018-02-01T18:26:42.050Z,92.55
2018-02-01T18:29:10.467Z,92.77
2018-02-01T18:31:39.069Z,92.88
2018-02-01T18:34:09.279Z,92.72
2018-02-01T18:36:42.616Z,92.60
2018-02-01T18:39:11.307Z,92.37
2018-02-01T18:41:39.683Z,92.58
2018-02-01T18:44:08.094Z,92.89
2018-02-01T18:46:37.472Z,93.14
2018-02-01T18:49:05.914Z,93.55
2018-02-01T18:51:36.918Z,93.45
2018-02-01T18:54:06.580Z,93.50
2018-02-01T18:56:38.183Z,93.65
2018-02-01T18:59:06.807Z,93.26
2018-02-01T19:01:35.523Z,92.93
2018-02-01T19:04:03.959Z,92.97
2018-02-01T19:06:32.712Z,93.45
2018-02-01T19:09:03.881Z,93.37
2018-02-01T19:11:34.880Z,93.39
2018-02-01T19:14:03.454Z,93.21
2018-02-01T19:16:32.113Z,93.15
2018-02-01T19:19:01.351Z,93.07
2018-02-01T19:21:31.767Z,93.12
2018-02-01T19:24:02.625Z,93.08
2018-02-01T19:26:33.662Z,93.51
2018-02-01T19:29:02.260Z,93.26
2018-02-01T19:31:30.720Z,93.51
2018-02-01T19:33:59.304Z,93.64
2018-02-01T19:36:30.075Z,93.53
2018-02-01T19:38:59.660Z,93.36
2018-02-01T19:41:28.171Z,93.40
2018-02-01T19:43:58.459Z,93.43
2018-02-01T19:46:29.468Z,93.42
2018-02-01T19:49:00.205Z,93.32
2018-02-01T19:51:31.221Z,93.20
2018-02-01T19:53:59.863Z,93.20
2018-02-01T19:56:28.271Z,93.15
2018-02-01T19:58:57.531Z,93.11
2018-02-01T20:01:26.067Z,92.92
2018-02-01T20:03:55.631Z,93.01
2018-02-01T20:06:25.608Z,92.92
2018-02-01T20:08:56.018Z,92.84
2018-02-01T20:11:27.188Z,92.79
2018-02-01T20:13:56.075Z,92.92
2018-02-01T20:16:24.668Z,92.91
2018-02-01T20:18:53.326Z,92.79
2018-02-01T20:21:22.955Z,92.79
2018-02-01T20:23:51.958Z,92.79
2018-02-01T20:26:21.457Z,92.58
2018-02-01T20:28:50.257Z,92.81
2018-02-01T20:31:21.922Z,92.96
2018-02-01T20:33:50.405Z,93.00
2018-02-01T20:36:20.005Z,93.22
2018-02-01T20:38:49.503Z,93.09
2018-02-01T20:41:17.987Z,93.09
2018-02-01T20:43:48.504Z,93.15
2018-02-01T20:46:17.211Z,93.09
2018-02-01T20:48:50.081Z,93.28
2018-02-01T20:51:18.670Z,93.43
2018-02-01T20:53:47.301Z,93.45
2018-02-01T20:56:18.587Z,93.57
2018-02-01T20:58:49.572Z,93.66
2018-02-01T21:01:18.030Z,93.58
2018-02-01T21:03:47.630Z,93.53
2018-02-01T21:06:18.629Z,93.44
2018-02-01T21:08:47.079Z,93.49
2018-02-01T21:11:16.471Z,93.21
2018-02-01T21:13:44.780Z,93.42
2018-02-01T21:16:13.184Z,93.26
2018-02-01T21:18:41.702Z,93.36
2018-02-01T21:21:10.069Z,93.56
2018-02-01T21:23:38.420Z,93.31
2018-02-01T21:26:07.588Z,93.38
2018-02-01T21:28:37.812Z,93.26
2018-02-01T21:31:09.179Z,93.46
2018-02-01T21:33:37.638Z,93.47
2018-02-01T21:36:07.095Z,93.25
2018-02-01T21:38:36.362Z,93.27
2018-02-01T21:41:06.095Z,93.21
2018-02-01T21:43:37.159Z,93.37
2018-02-01T21:46:07.147Z,93.35
2018-02-01T21:48:35.520Z,93.40
2018-02-01T21:51:04.814Z,93.36
2018-02-01T21:53:36.783Z,93.13
2018-02-01T21:56:05.188Z,93.20
2018-02-01T21:58:36.070Z,93.18
2018-02-01T22:01:04.404Z,93.20
2018-02-01T22:03:34.505Z,93.29
2018-02-01T22:06:04.111Z,93.29
2018-02-01T22:08:32.537Z,93.32
2018-02-01T22:11:03.934Z,93.59
2018-02-01T22:13:33.359Z,93.54
2018-02-01T22:16:03.980Z,93.33
2018-02-01T22:18:33.399Z,93.34
2018-02-01T22:21:01.954Z,93.44
2018-02-01T22:23:31.172Z,93.62
2018-02-01T22:25:59.612Z,93.78
2018-02-01T22:28:28.041Z,93.85
2018-02-01T22:30:56.416Z,94.13
2018-02-01T22:33:24.771Z,94.07
2018-02-01T22:35:55.528Z,94.08
2018-02-01T22:38:23.855Z,94.11
2018-02-01T22:40:53.476Z,94.26
2018-02-01T22:43:22.799Z,94.18
2018-02-01T22:45:53.097Z,94.37
2018-02-01T22:48:24.708Z,94.42
2018-02-01T22:50:54.751Z,94.30
2018-02-01T22:53:23.169Z,94.24
2018-02-01T22:55:51.553Z,94.28
2018-02-01T22:58:20.973Z,94.22
2018-02-01T23:00:49.453Z,94.27
2018-02-01T23:03:20.398Z,94.44
2018-02-01T23:05:48.785Z,94.39
2018-02-01T23:08:17.190Z,94.38
2018-02-01T23:10:46.305Z,94.34
2018-02-01T23:13:14.675Z,94.20
2018-02-01T23:15:43.074Z,94.19
2018-02-01T23:18:13.356Z,94.29
2018-02-01T23:20:42.708Z,94.11
2018-02-01T23:23:11.991Z,93.89
2018-02-01T23:25:40.397Z,93.83
2018-02-01T23:28:10.587Z,93.63
2018-02-01T23:30:39.768Z,93.58
2018-02-01T23:33:09.116Z,93.40
2018-02-01T23:35:37.514Z,93.32
2018-02-01T23:38:06.627Z,93.23
2018-02-01T23:40:34.991Z,93.19
2018-02-01T23:43:05.089Z,93.18
2018-02-01T23:45:33.617Z,93.47
2018-02-01T23:48:01.961Z,93.54
2018-02-01T23:50:31.498Z,93.82
2018-02-01T23:53:00.253Z,93.88
2018-02-01T23:55:28.561Z,93.77
2018-02-01T23:57:56.895Z,93.70
